Time;durP1;ratioP1;P1;durP2;ratioP2;P2;SDS_P1;SDS_P2;PMS_P1;PMS_P2;Temp;Humidity;BMP_temperature;BMP_pressure;BME280_temperature;BME280_humidity;BME280_pressure;Samples;Min_cycle;Max_cycle;Signal;HPM_P1;HPM_P2
2022/01/09 00:01:59;;;;;;;0.57;0.57;;;7.00;54.90;;;;;;20586;6868;117632;-87
2022/01/09 00:04:25;;;;;;;0.60;0.60;;;6.90;54.80;;;;;;20644;6868;117441;-84
2022/01/09 00:06:50;;;;;;;0.47;0.47;;;6.70;55.00;;;;;;20444;6868;280675;-86
2022/01/09 00:09:16;;;;;;;0.30;0.30;;;6.80;56.10;;;;;;20456;6868;309163;-85
2022/01/09 00:11:42;;;;;;;0.30;0.30;;;7.20;56.50;;;;;;20425;6868;304905;-85
2022/01/09 00:14:08;;;;;;;0.33;0.33;;;7.30;55.80;;;;;;20444;6868;280378;-85
2022/01/09 00:16:35;;;;;;;0.30;0.30;;;7.50;55.50;;;;;;20664;6866;117642;-87
2022/01/09 00:19:00;;;;;;;0.50;0.50;;;7.30;55.20;;;;;;20655;6869;117416;-85
2022/01/09 00:21:27;;;;;;;0.43;0.43;;;7.00;55.80;;;;;;20626;6871;117908;-85
2022/01/09 00:23:53;;;;;;;0.50;0.50;;;6.70;56.00;;;;;;20435;6862;337302;-86
2022/01/09 00:26:18;;;;;;;0.60;0.40;;;6.80;56.90;;;;;;20461;6862;308561;-86
2022/01/09 00:28:44;;;;;;;0.30;0.30;;;7.10;56.80;;;;;;20666;6862;120102;-86
2022/01/09 00:31:09;;;;;;;1.05;0.50;;;7.00;56.50;;;;;;20457;6862;336714;-85
2022/01/09 00:33:35;;;;;;;0.30;0.30;;;7.00;56.80;;;;;;20457;6862;309151;-85
2022/01/09 00:36:01;;;;;;;0.53;0.23;;;7.30;56.70;;;;;;20471;6848;308236;-85
2022/01/09 00:38:26;;;;;;;0.40;0.40;;;7.40;56.30;;;;;;20445;6862;311882;-85
2022/01/09 00:40:52;;;;;;;1.92;1.27;;;7.60;55.90;;;;;;20674;6848;117170;-85
2022/01/09 00:43:17;;;;;;;0.30;0.20;;;7.40;55.80;;;;;;20450;6848;280160;-84
2022/01/09 00:45:43;;;;;;;0.33;0.33;;;7.40;56.30;;;;;;20623;6871;117367;-85
2022/01/09 00:48:08;;;;;;;0.30;0.30;;;7.30;56.20;;;;;;20380;6871;309116;-85
2022/01/09 00:50:36;;;;;;;0.20;0.20;;;7.30;56.70;;;;;;20417;6868;282196;-85
2022/01/09 00:53:01;;;;;;;0.30;0.30;;;7.40;56.70;;;;;;20653;6860;117795;-85
2022/01/09 00:55:27;;;;;;;0.20;0.20;;;7.30;56.40;;;;;;20458;6856;310821;-85
2022/01/09 00:57:53;;;;;;;0.28;0.28;;;7.30;56.90;;;;;;20445;6862;308456;-85
2022/01/09 01:00:19;;;;;;;0.30;0.30;;;7.50;56.80;;;;;;20467;6862;340726;-86
2022/01/09 01:02:46;;;;;;;0.83;0.33;;;7.50;56.40;;;;;;20666;6862;117575;-85
2022/01/09 01:05:12;;;;;;;0.20;0.20;;;7.50;56.40;;;;;;20660;6862;118207;-85
2022/01/09 01:07:38;;;;;;;0.20;0.20;;;7.20;56.80;;;;;;20677;6861;117123;-85
2022/01/09 01:10:04;;;;;;;0.30;0.30;;;6.70;57.90;;;;;;20681;6862;117241;-85
2022/01/09 01:12:31;;;;;;;0.30;0.30;;;6.70;57.90;;;;;;20464;6862;281757;-85
2022/01/09 01:14:57;;;;;;;0.20;0.20;;;6.80;58.50;;;;;;20678;6862;119022;-86
2022/01/09 01:17:23;;;;;;;0.10;0.10;;;6.70;58.60;;;;;;20672;6862;117409;-85
2022/01/09 01:19:48;;;;;;;0.20;0.20;;;6.60;58.30;;;;;;20440;6862;310766;-85
2022/01/09 01:22:14;;;;;;;0.30;0.30;;;6.80;59.10;;;;;;20668;6862;121010;-85
2022/01/09 01:24:41;;;;;;;0.10;0.10;;;6.60;58.80;;;;;;20656;6868;119954;-85
2022/01/09 01:27:07;;;;;;;0.20;0.20;;;6.60;58.80;;;;;;20659;6868;120241;-86
2022/01/09 01:29:34;;;;;;;0.20;0.20;;;6.50;59.10;;;;;;20393;6883;311748;-85
2022/01/09 01:32:00;;;;;;;0.23;0.23;;;6.60;59.60;;;;;;20604;6881;117900;-85
2022/01/09 01:34:26;;;;;;;0.27;0.27;;;6.70;59.20;;;;;;20669;6866;117485;-85
2022/01/09 01:36:52;;;;;;;0.43;0.43;;;6.60;59.30;;;;;;20661;6868;117535;-84
2022/01/09 01:39:17;;;;;;;0.30;0.30;;;6.50;59.50;;;;;;20447;6868;311869;-85
2022/01/09 01:41:43;;;;;;;0.30;0.30;;;6.60;59.70;;;;;;20629;6871;118051;-85
2022/01/09 01:44:09;;;;;;;0.40;0.40;;;6.70;59.30;;;;;;20453;6853;312570;-84
2022/01/09 01:46:34;;;;;;;0.70;0.70;;;6.80;58.80;;;;;;20551;6853;303105;-85
2022/01/09 01:49:00;;;;;;;0.60;0.60;;;7.10;58.00;;;;;;20768;6853;116339;-86
2022/01/09 01:51:25;;;;;;;0.30;0.30;;;7.10;57.60;;;;;;20555;6853;338112;-85
2022/01/09 01:53:54;;;;;;;0.22;0.22;;;7.20;57.40;;;;;;20738;6853;117621;-86
2022/01/09 01:56:19;;;;;;;0.10;0.10;;;7.20;57.30;;;;;;20478;6853;297124;-84
2022/01/09 01:58:43;;;;;;;0.40;0.40;;;7.30;56.80;;;;;;20698;6853;117258;-85
2022/01/09 02:01:08;;;;;;;0.20;0.20;;;7.20;56.70;;;;;;20701;6853;117611;-84
2022/01/09 02:03:34;;;;;;;0.20;0.20;;;7.00;57.00;;;;;;20494;6853;308406;-84
2022/01/09 02:06:02;;;;;;;0.25;0.25;;;7.40;56.70;;;;;;20469;6853;281731;-85
2022/01/09 02:08:27;;;;;;;0.10;0.10;;;7.40;56.50;;;;;;20482;6853;279586;-85
2022/01/09 02:10:54;;;;;;;0.10;0.10;;;7.60;55.50;;;;;;20472;6853;309172;-85
2022/01/09 02:13:20;;;;;;;0.10;0.10;;;7.80;54.90;;;;;;20444;6853;308842;-85
2022/01/09 02:15:46;;;;;;;0.17;0.17;;;8.00;54.40;;;;;;20665;6853;118279;-84
2022/01/09 02:18:18;;;;;;;0.27;0.20;;;7.90;54.50;;;;;;20445;6852;312774;-85
2022/01/09 02:20:43;;;;;;;0.10;0.10;;;7.80;55.00;;;;;;20688;6853;117089;-85
2022/01/09 02:23:11;;;;;;;0.20;0.20;;;7.50;55.60;;;;;;20684;6853;117587;-85
2022/01/09 02:25:36;;;;;;;0.13;0.10;;;7.40;55.60;;;;;;20496;6853;282487;-85
2022/01/09 02:28:02;;;;;;;0.20;0.20;;;7.50;55.80;;;;;;20681;6853;117582;-85
2022/01/09 02:30:29;;;;;;;0.10;0.10;;;7.40;55.60;;;;;;20467;6853;338258;-85
2022/01/09 02:32:53;;;;;;;0.10;0.10;;;7.50;55.60;;;;;;20487;6853;309665;-85
2022/01/09 02:35:22;;;;;;;0.10;0.10;;;7.80;55.00;;;;;;20698;6853;117200;-85
2022/01/09 02:37:49;;;;;;;0.20;0.20;;;7.50;55.20;;;;;;20677;6853;119551;-85
2022/01/09 02:40:15;;;;;;;0.53;0.20;;;7.40;55.10;;;;;;20647;6868;118453;-85
2022/01/09 02:42:41;;;;;;;0.10;0.10;;;7.20;55.60;;;;;;20653;6868;117204;-85
2022/01/09 02:45:06;;;;;;;0.20;0.20;;;7.10;56.00;;;;;;20443;6868;315056;-86
2022/01/09 02:47:34;;;;;;;0.20;0.20;;;7.20;56.00;;;;;;20635;6871;117337;-85
2022/01/09 02:50:07;;;;;;;0.10;0.10;;;7.20;56.00;;;;;;20416;6871;289919;-85
2022/01/09 02:52:34;;;;;;;0.20;0.20;;;7.30;55.60;;;;;;20616;6871;118391;-85
2022/01/09 02:55:14;;;;;;;0.57;0.10;;;7.30;55.60;;;;;;20691;6856;119125;-85
2022/01/09 02:57:38;;;;;;;0.20;0.20;;;7.10;55.80;;;;;;20719;6868;117521;-86
2022/01/09 03:00:04;;;;;;;0.15;0.15;;;7.00;56.20;;;;;;20617;6650;305616;-85
2022/01/09 03:02:50;;;;;;;;;;;;;;;;;;;;;
2022/01/09 03:05:16;;;;;;;0.10;0.10;;;7.10;56.30;;;;;;20671;6759;307190;-85
2022/01/09 03:07:52;;;;;;;0.30;0.17;;;7.20;56.40;;;;;;20639;6747;286719;-85
2022/01/09 03:10:28;;;;;;;0.65;0.10;;;7.60;55.80;;;;;;20529;6759;309160;-85
2022/01/09 03:13:05;;;;;;;1.37;0.10;;;7.80;54.90;;;;;;20818;6770;116994;-84
2022/01/09 03:15:40;;;;;;;0.10;0.10;;;7.70;54.80;;;;;;20799;6774;118076;-85
2022/01/09 03:18:17;;;;;;;0.10;0.10;;;7.50;55.30;;;;;;20819;6761;116924;-85
2022/01/09 03:20:53;;;;;;;0.20;0.20;;;7.30;55.70;;;;;;20700;6759;117541;-85
2022/01/09 03:23:29;;;;;;;0.30;0.20;;;7.20;56.00;;;;;;20569;6759;337466;-84
2022/01/09 03:26:08;;;;;;;0.20;0.20;;;7.20;56.00;;;;;;20802;6761;119718;-85
2022/01/09 03:28:40;;;;;;;0.13;0.13;;;7.20;55.80;;;;;;20807;6810;117067;-85
2022/01/09 03:31:16;;;;;;;0.10;0.10;;;7.00;55.90;;;;;;20786;6768;117059;-87
2022/01/09 03:33:51;;;;;;;0.10;0.10;;;6.90;56.20;;;;;;20819;6765;119946;-86
2022/01/09 03:36:27;;;;;;;0.20;0.20;;;6.70;56.40;;;;;;20622;6746;337112;-86
2022/01/09 03:39:04;;;;;;;0.10;0.10;;;6.90;56.60;;;;;;20563;6760;342709;-87
2022/01/09 03:41:40;;;;;;;0.20;0.20;;;7.30;55.90;;;;;;20819;6746;119662;-86
2022/01/09 03:44:15;;;;;;;0.20;0.20;;;7.30;55.60;;;;;;20639;6747;308229;-86
2022/01/09 03:46:52;;;;;;;0.60;0.15;;;7.40;55.50;;;;;;20622;6742;305766;-86
2022/01/09 03:49:29;;;;;;;0.20;0.10;;;7.70;55.00;;;;;;20569;6752;282436;-86
2022/01/09 03:52:05;;;;;;;0.10;0.10;;;7.80;54.10;;;;;;20533;6774;292173;-86
2022/01/09 03:54:40;;;;;;;0.10;0.10;;;8.00;53.70;;;;;;20466;6801;312015;-86
2022/01/09 03:57:16;;;;;;;0.20;0.20;;;8.10;53.20;;;;;;20762;6770;117153;-86
2022/01/09 03:59:52;;;;;;;0.10;0.10;;;7.80;53.00;;;;;;20505;6764;308078;-86
2022/01/09 04:02:27;;;;;;;0.10;0.10;;;7.80;53.30;;;;;;20793;6766;120021;-86
2022/01/09 04:05:04;;;;;;;0.10;0.10;;;7.20;54.50;;;;;;20728;6781;117710;-86
2022/01/09 04:07:41;;;;;;;0.10;0.10;;;7.20;53.90;;;;;;20504;6767;336345;-86
2022/01/09 04:10:19;;;;;;;0.20;0.20;;;7.20;54.50;;;;;;20409;6793;313334;-86
2022/01/09 04:12:58;;;;;;;0.60;0.20;;;7.40;54.30;;;;;;20582;6770;277714;-88
2022/01/09 04:15:27;;;;;;;0.37;0.37;;;7.60;53.80;;;;;;20568;6755;337602;-87
2022/01/09 04:18:03;;;;;;;0.22;0.22;;;7.80;53.40;;;;;;20629;6750;307444;-88
2022/01/09 04:20:41;;;;;;;0.20;0.17;;;7.90;53.10;;;;;;20545;6740;308623;-86
2022/01/09 04:23:14;;;;;;;0.20;0.20;;;8.00;52.80;;;;;;20729;6760;277452;-87
2022/01/09 04:25:50;;;;;;;0.17;0.17;;;8.00;52.70;;;;;;20873;6761;120280;-86
2022/01/09 04:28:25;;;;;;;0.10;0.10;;;7.80;53.00;;;;;;20642;6748;320429;-86
2022/01/09 04:31:01;;;;;;;0.13;0.10;;;7.70;53.70;;;;;;20610;6783;118075;-86
2022/01/09 04:33:36;;;;;;;0.10;0.10;;;7.50;53.60;;;;;;20686;6737;306613;-86
2022/01/09 04:36:12;;;;;;;0.20;0.20;;;7.50;54.20;;;;;;20856;6738;117332;-86
2022/01/09 04:38:48;;;;;;;0.10;0.10;;;7.40;54.20;;;;;;20886;6732;116751;-85
2022/01/09 04:41:24;;;;;;;0.20;0.20;;;7.10;54.60;;;;;;20671;6737;309649;-87
2022/01/09 04:44:00;;;;;;;0.20;0.20;;;7.20;55.50;;;;;;20822;6737;117432;-86
2022/01/09 04:46:45;;;;;;;0.20;0.20;;;7.10;55.10;;;;;;20609;6761;307249;-86
2022/01/09 04:49:20;;;;;;;0.28;0.28;;;7.20;55.50;;;;;;20567;6759;309068;-86
2022/01/09 04:51:47;;;;;;;0.10;0.10;;;7.40;55.40;;;;;;20610;6750;307171;-86
2022/01/09 04:54:22;;;;;;;0.60;0.20;;;7.60;55.10;;;;;;20859;6750;117055;-86
2022/01/09 04:57:00;;;;;;;1.60;0.20;;;7.40;54.90;;;;;;20535;6780;341941;-85
2022/01/09 04:59:33;;;;;;;1.50;0.10;;;7.30;55.30;;;;;;20724;6765;117246;-86
2022/01/09 05:02:09;;;;;;;0.30;0.30;;;7.10;55.00;;;;;;20740;6780;116892;-86
2022/01/09 05:04:44;;;;;;;0.20;0.20;;;6.70;55.30;;;;;;20535;6782;338094;-86
2022/01/09 05:07:20;;;;;;;0.30;0.20;;;6.70;56.40;;;;;;20823;6754;116990;-86
2022/01/09 05:09:56;;;;;;;0.20;0.20;;;6.60;56.10;;;;;;20482;6769;318576;-86
2022/01/09 05:12:31;;;;;;;0.30;0.30;;;6.60;56.90;;;;;;20581;6766;310237;-86
2022/01/09 05:15:09;;;;;;;0.10;0.10;;;7.00;56.20;;;;;;20594;6754;337389;-86
2022/01/09 05:17:45;;;;;;;0.17;0.17;;;7.00;56.20;;;;;;20818;6751;118123;-86
2022/01/09 05:20:20;;;;;;;0.20;0.20;;;6.80;55.90;;;;;;20461;6826;324980;-85
2022/01/09 05:22:57;;;;;;;0.20;0.20;;;6.70;56.40;;;;;;20689;6735;303756;-86
2022/01/09 05:25:32;;;;;;;0.20;0.20;;;6.90;56.30;;;;;;20896;6735;115927;-85
2022/01/09 05:28:11;;;;;;;0.30;0.30;;;6.70;56.20;;;;;;20669;6735;319537;-86
2022/01/09 05:30:43;;;;;;;0.27;0.20;;;6.70;56.70;;;;;;20527;6735;283763;-87
2022/01/09 05:33:19;;;;;;;0.20;0.20;;;6.80;56.40;;;;;;20594;6759;336608;-86
2022/01/09 05:35:55;;;;;;;0.50;0.10;;;6.90;55.90;;;;;;20804;6753;127743;-86
2022/01/09 05:38:31;;;;;;;0.30;0.30;;;6.60;55.70;;;;;;20797;6759;117420;-86
2022/01/09 05:41:07;;;;;;;0.30;0.10;;;6.20;56.30;;;;;;20432;6799;279530;-86
2022/01/09 05:43:42;;;;;;;0.20;0.20;;;6.20;57.10;;;;;;20776;6754;117031;-86
2022/01/09 05:46:18;;;;;;;0.10;0.10;;;6.10;57.00;;;;;;20845;6746;117371;-86
2022/01/09 05:48:54;;;;;;;0.27;0.27;;;5.50;57.80;;;;;;20823;6769;116816;-86
2022/01/09 05:51:30;;;;;;;0.57;0.30;;;5.50;57.80;;;;;;20900;6737;117993;-85
2022/01/09 05:54:07;;;;;;;0.17;0.17;;;5.30;58.20;;;;;;20563;6768;278393;-86
2022/01/09 05:56:42;;;;;;;0.20;0.20;;;5.50;58.80;;;;;;20584;6765;278075;-86
2022/01/09 05:59:19;;;;;;;0.43;0.43;;;5.80;58.30;;;;;;20510;6767;309911;-86
2022/01/09 06:01:56;;;;;;;0.10;0.10;;;6.00;57.50;;;;;;20610;6746;280059;-86
2022/01/09 06:04:31;;;;;;;0.10;0.10;;;6.20;56.90;;;;;;20634;6746;279852;-85
2022/01/09 06:07:08;;;;;;;0.20;0.20;;;6.30;56.40;;;;;;20868;6750;117000;-86
2022/01/09 06:09:44;;;;;;;0.10;0.10;;;6.00;56.40;;;;;;20617;6750;282937;-86
2022/01/09 06:12:19;;;;;;;0.20;0.10;;;5.90;56.90;;;;;;20850;6754;117053;-86
2022/01/09 06:14:54;;;;;;;0.10;0.10;;;5.70;56.90;;;;;;20577;6784;339404;-85
2022/01/09 06:17:36;;;;;;;0.10;0.10;;;5.70;57.50;;;;;;20533;6769;338385;-86
2022/01/09 06:20:12;;;;;;;0.20;0.20;;;5.90;57.20;;;;;;20622;6782;117751;-86
2022/01/09 06:22:47;;;;;;;0.10;0.10;;;5.70;56.90;;;;;;20848;6752;118039;-86
2022/01/09 06:25:23;;;;;;;0.20;0.20;;;5.30;57.50;;;;;;20585;6760;323095;-84
2022/01/09 06:28:04;;;;;;;0.20;0.20;;;5.30;58.40;;;;;;20721;6768;117172;-87
2022/01/09 06:30:34;;;;;;;0.17;0.17;;;5.30;58.30;;;;;;20440;6740;311246;-87
2022/01/09 06:33:10;;;;;;;0.10;0.10;;;5.30;58.60;;;;;;20696;6740;295751;-87
2022/01/09 06:35:45;;;;;;;0.10;0.10;;;5.50;58.20;;;;;;20874;6796;116062;-85
2022/01/09 06:38:21;;;;;;;0.20;0.20;;;5.50;57.90;;;;;;20928;6740;117982;-85
2022/01/09 06:40:58;;;;;;;0.23;0.23;;;4.90;59.00;;;;;;20730;6740;120663;-87
2022/01/09 06:43:33;;;;;;;0.20;0.20;;;4.90;59.60;;;;;;20830;6750;117142;-89
2022/01/09 06:46:08;;;;;;;0.20;0.20;;;4.70;59.40;;;;;;20621;6748;326079;-86
2022/01/09 06:48:45;;;;;;;0.60;0.35;;;4.80;60.00;;;;;;20613;6750;336489;-86
2022/01/09 06:51:21;;;;;;;0.30;0.30;;;5.20;59.80;;;;;;20840;6738;117420;-85
2022/01/09 06:53:57;;;;;;;0.60;0.33;;;5.10;59.10;;;;;;20555;6766;323848;-84
2022/01/09 06:56:32;;;;;;;0.50;0.50;;;5.20;59.40;;;;;;20572;6766;307472;-87
2022/01/09 06:59:08;;;;;;;0.30;0.30;;;5.40;58.90;;;;;;20588;6751;310028;-86
2022/01/09 07:01:43;;;;;;;0.50;0.50;;;5.60;58.30;;;;;;20781;6767;117494;-86
2022/01/09 07:04:19;;;;;;;1.63;1.13;;;5.50;58.20;;;;;;20545;6767;338546;-86
2022/01/09 07:06:55;;;;;;;0.63;0.53;;;5.40;58.80;;;;;;20855;6752;116819;-89
2022/01/09 07:09:33;;;;;;;0.37;0.37;;;5.30;58.70;;;;;;20578;6726;308923;-88
2022/01/09 07:12:07;;;;;;;0.23;0.23;;;5.40;59.30;;;;;;20864;6737;119859;-89
2022/01/09 07:14:41;;;;;;;0.30;0.30;;;5.30;59.20;;;;;;20900;6725;114746;-88
2022/01/09 07:17:17;;;;;;;0.30;0.30;;;5.00;59.50;;;;;;20720;6721;305078;-89
2022/01/09 07:19:53;;;;;;;0.70;0.70;;;5.10;60.10;;;;;;20812;6721;120435;-87
2022/01/09 07:22:33;;;;;;;1.10;0.20;;;5.10;59.80;;;;;;20625;6747;310464;-89
2022/01/09 07:25:08;;;;;;;0.20;0.20;;;5.20;60.10;;;;;;20633;6752;306470;-87
2022/01/09 07:27:46;;;;;;;0.30;0.30;;;5.50;59.70;;;;;;20699;6824;118999;-88
2022/01/09 07:30:26;;;;;;;0.20;0.20;;;5.50;59.10;;;;;;20563;6740;280202;-88
2022/01/09 07:33:03;;;;;;;0.20;0.20;;;5.50;59.40;;;;;;20668;6740;308421;-88
2022/01/09 07:35:39;;;;;;;0.30;0.30;;;5.70;58.90;;;;;;20880;6740;116791;-87
2022/01/09 07:38:15;;;;;;;0.83;0.23;;;5.60;58.60;;;;;;20899;6740;117436;-87
2022/01/09 07:40:52;;;;;;;0.40;0.40;;;5.30;59.10;;;;;;20768;6781;117187;-87
2022/01/09 07:43:27;;;;;;;0.30;0.30;;;5.00;59.70;;;;;;20664;6755;306095;-88
2022/01/09 07:46:05;;;;;;;0.30;0.30;;;5.10;60.10;;;;;;20647;6755;277185;-89
2022/01/09 07:48:43;;;;;;;0.30;0.30;;;5.50;59.60;;;;;;20648;6756;335960;-89
2022/01/09 07:51:19;;;;;;;1.33;0.47;;;5.80;58.80;;;;;;20861;6756;119833;-88
2022/01/09 07:53:55;;;;;;;1.07;0.30;;;5.70;58.50;;;;;;20647;6796;306445;-87
2022/01/09 07:56:30;;;;;;;0.40;0.30;;;5.70;58.70;;;;;;20712;6781;321088;-87
2022/01/09 07:59:06;;;;;;;0.97;0.60;;;5.90;58.10;;;;;;20933;6781;119703;-89
2022/01/09 08:01:41;;;;;;;0.60;0.53;;;5.80;58.10;;;;;;20731;6740;116314;-88
2022/01/09 08:04:17;;;;;;;1.50;0.40;;;5.50;58.60;;;;;;20977;6740;120902;-89
2022/01/09 08:06:53;;;;;;;0.33;0.33;;;5.10;59.80;;;;;;20930;6767;115924;-89
2022/01/09 08:09:29;;;;;;;0.40;0.40;;;5.00;59.70;;;;;;20776;6752;117508;-90
2022/01/09 08:12:05;;;;;;;1.20;0.47;;;4.90;60.10;;;;;;20860;6751;119093;-88
2022/01/09 08:14:41;;;;;;;0.40;0.40;;;4.70;60.60;;;;;;20861;6752;117447;-91
2022/01/09 08:17:17;;;;;;;1.90;0.60;;;4.70;60.60;;;;;;20862;6790;116923;-89
2022/01/09 08:19:52;;;;;;;1.13;0.70;;;4.70;60.90;;;;;;20550;6793;309521;-89
2022/01/09 08:22:29;;;;;;;1.00;0.80;;;4.90;61.10;;;;;;20588;6808;280376;-89
2022/01/09 08:25:06;;;;;;;4.17;2.50;;;5.30;60.30;;;;;;20742;6817;116935;-89
2022/01/09 08:27:42;;;;;;;8.65;7.40;;;5.40;59.80;;;;;;20586;6759;305433;-88
2022/01/09 08:30:26;;;;;;;2.93;2.63;;;5.50;59.80;;;;;;20706;6813;117398;-90
2022/01/09 08:32:52;;;;;;;2.27;2.07;;;5.50;59.40;;;;;;20779;6818;118958;-90
2022/01/09 08:35:29;;;;;;;1.33;1.00;;;5.30;59.90;;;;;;20740;6779;117360;-89
2022/01/09 08:38:05;;;;;;;2.12;1.95;;;5.20;60.20;;;;;;20498;6783;305555;-86
2022/01/09 08:40:50;;;;;;;1.50;1.40;;;5.30;60.30;;;;;;20437;6765;308196;-90
2022/01/09 08:43:16;;;;;;;2.70;1.53;;;5.70;59.40;;;;;;20827;6750;117224;-88
2022/01/09 08:45:52;;;;;;;1.90;1.10;;;5.50;59.40;;;;;;20805;6800;117622;-87
2022/01/09 08:48:28;;;;;;;3.60;3.28;;;5.40;59.30;;;;;;20632;6741;336056;-88
2022/01/09 08:51:07;;;;;;;2.23;1.90;;;5.60;59.60;;;;;;20656;6857;117655;-91
2022/01/09 08:53:50;;;;;;;4.43;4.03;;;5.50;59.20;;;;;;20759;6774;118166;-89
2022/01/09 08:56:21;;;;;;;32.97;24.47;;;5.40;59.70;;;;;;20692;6732;281784;-89
2022/01/09 08:59:01;;;;;;;16.27;14.65;;;5.50;60.00;;;;;;20666;6732;307482;-86
2022/01/09 09:01:32;;;;;;;5.43;5.03;;;5.90;59.30;;;;;;20636;6746;288966;-87
2022/01/09 09:04:09;;;;;;;15.52;14.02;;;6.20;58.70;;;;;;20622;6749;283808;-89
2022/01/09 09:06:46;;;;;;;9.77;8.97;;;6.50;58.10;;;;;;20623;6809;284804;-89
2022/01/09 09:09:21;;;;;;;8.00;7.27;;;6.70;57.40;;;;;;20549;6749;279865;-88
2022/01/09 09:11:58;;;;;;;8.13;7.43;;;6.90;57.00;;;;;;20783;6764;124447;-88
2022/01/09 09:14:34;;;;;;;3.67;3.37;;;6.80;57.10;;;;;;20623;6757;280825;-88
2022/01/09 09:17:09;;;;;;;4.80;4.40;;;6.80;57.80;;;;;;20644;6753;277449;-89
2022/01/09 09:19:45;;;;;;;5.07;4.67;;;7.00;57.50;;;;;;20543;6753;308841;-87
2022/01/09 09:22:21;;;;;;;8.03;7.33;;;7.30;56.70;;;;;;20804;6750;114307;-88
2022/01/09 09:24:56;;;;;;;2.13;1.57;;;7.20;56.80;;;;;;20888;6731;116851;-89
2022/01/09 09:27:33;;;;;;;5.10;3.73;;;7.10;57.40;;;;;;20653;6743;282282;-89
2022/01/09 09:30:10;;;;;;;5.72;3.62;;;7.10;57.00;;;;;;20581;6724;281204;-88
2022/01/09 09:32:46;;;;;;;8.97;2.37;;;7.30;55.20;;;;;;20866;6740;117344;-89
2022/01/09 09:35:23;;;;;;;6.40;2.80;;;7.20;55.00;;;;;;20906;6725;116850;-89
2022/01/09 09:37:58;;;;;;;3.43;2.67;;;6.90;55.40;;;;;;20854;6740;118367;-88
2022/01/09 09:40:43;;;;;;;5.20;2.90;;;6.70;56.10;;;;;;20713;6740;116640;-89
2022/01/09 09:43:09;;;;;;;6.87;4.03;;;6.50;56.60;;;;;;20861;6743;116917;-89
2022/01/09 09:45:45;;;;;;;4.93;3.80;;;6.30;56.80;;;;;;20502;6784;289010;-89
2022/01/09 09:48:23;;;;;;;7.13;3.57;;;6.70;55.70;;;;;;20476;6760;308080;-88
2022/01/09 09:50:58;;;;;;;5.07;2.90;;;6.70;55.10;;;;;;20456;6749;311599;-87
2022/01/09 09:53:34;;;;;;;3.90;2.27;;;7.00;54.50;;;;;;20889;6732;117617;-88
2022/01/09 09:56:19;;;;;;;;;;;;;;;;;;;;;
2022/01/09 09:58:47;;;;;;;4.90;2.97;;;7.00;54.60;;;;;;20589;6742;324957;-87
2022/01/09 10:01:20;;;;;;;13.00;9.57;;;7.20;54.10;;;;;;20831;6742;116916;-89
2022/01/09 10:03:59;;;;;;;5.57;3.40;;;7.10;54.30;;;;;;20861;6749;126784;-87
2022/01/09 10:06:36;;;;;;;3.73;2.13;;;6.90;54.80;;;;;;20698;6729;307074;-88
2022/01/09 10:09:12;;;;;;;7.43;4.23;;;7.00;55.20;;;;;;20862;6786;117129;-87
2022/01/09 10:12:07;;;;;;;;;;;;;;;;;;;;;
2022/01/09 10:18:01;;;;;;;;;;;;;;;;;;;;;
2022/01/09 10:20:27;;;;;;;7.00;5.47;;;7.40;54.10;;;;;;19735;6762;119032;-92
2022/01/09 10:23:05;;;;;;;9.00;6.28;;;7.20;54.70;;;;;;20702;6727;307386;-90
2022/01/09 10:25:40;;;;;;;3.20;1.80;;;7.20;54.60;;;;;;20839;6783;118317;-90
2022/01/09 10:28:20;;;;;;;4.27;2.40;;;7.20;54.90;;;;;;20862;6741;117504;-89
2022/01/09 10:30:52;;;;;;;2.93;1.27;;;7.10;55.30;;;;;;20568;6732;307626;-88
2022/01/09 10:33:31;;;;;;;2.60;1.40;;;7.30;55.00;;;;;;20612;6745;337690;-92
2022/01/09 10:36:04;;;;;;;3.27;1.17;;;7.60;53.80;;;;;;20813;6732;118303;-89
2022/01/09 10:38:40;;;;;;;3.70;1.50;;;7.60;53.90;;;;;;20643;6747;292532;-88
2022/01/09 10:41:15;;;;;;;4.57;1.77;;;7.70;53.90;;;;;;20900;6747;118496;-88
2022/01/09 10:43:51;;;;;;;3.05;1.67;;;7.70;54.10;;;;;;20722;6734;305049;-89
2022/01/09 10:46:32;;;;;;;2.43;1.70;;;7.80;53.20;;;;;;20925;6790;116865;-87
2022/01/09 10:49:10;;;;;;;1.93;1.40;;;7.80;53.60;;;;;;20889;6747;117034;-87
2022/01/09 10:51:54;;;;;;;4.80;1.70;;;7.70;53.70;;;;;;20624;6747;335829;-85
2022/01/09 10:54:46;;;;;;;;;;;;;;;;;;;;;
2022/01/09 10:57:15;;;;;;;2.92;1.77;;;7.70;52.80;;;;;;20525;6777;278173;-87
2022/01/09 10:59:47;;;;;;;3.00;1.60;;;7.90;52.00;;;;;;20691;6762;123612;-89
2022/01/09 11:02:36;;;;;;;3.37;1.27;;;7.70;51.80;;;;;;20765;6815;117830;-90
2022/01/09 11:05:06;;;;;;;8.13;1.63;;;7.10;52.70;;;;;;20763;6774;117177;-87
2022/01/09 11:07:38;;;;;;;2.20;1.13;;;7.10;52.60;;;;;;20838;6762;117270;-89
2022/01/09 11:10:15;;;;;;;4.13;1.53;;;6.90;53.30;;;;;;20552;6727;312329;-89
2022/01/09 11:13:16;;;;;;;;;;;;;;;;;;;;;
2022/01/09 11:16:32;;;;;;;3.80;1.83;;;7.30;53.30;;;;;;20516;6742;117134;-87
2022/01/09 11:18:47;;;;;;;;;;;;;;;;;;;;;
2022/01/09 11:21:11;;;;;;;4.95;2.20;;;7.30;53.90;;;;;;20306;6877;279085;-88
2022/01/09 11:24:10;;;;;;;2.33;1.53;;;7.50;53.60;;;;;;20745;6760;117016;-86
2022/01/09 11:27:42;;;;;;;4.57;1.77;;;7.40;53.50;;;;;;20630;6792;279411;-90
2022/01/09 11:30:13;;;;;;;;;;;;;;;;;;;;;
2022/01/09 11:33:13;;;;;;;4.20;1.40;;;7.10;53.60;;;;;;20503;6741;116473;-89
2022/01/09 11:35:55;;;;;;;4.90;1.47;;;6.80;54.20;;;;;;20531;6756;117054;-90
2022/01/09 11:39:11;;;;;;;;;;;;;;;;;;;;;
2022/01/09 11:41:26;;;;;;;4.33;1.63;;;6.60;55.30;;;;;;20489;6827;277080;-88
2022/01/09 11:44:02;;;;;;;2.50;1.37;;;7.00;54.70;;;;;;20787;6756;118204;-88
2022/01/09 11:47:04;;;;;;;2.45;1.40;;;6.90;54.70;;;;;;20500;6786;336764;-88
2022/01/09 11:49:56;;;;;;;3.00;1.50;;;7.00;55.10;;;;;;20647;6788;117614;-87
2022/01/09 11:52:31;;;;;;;5.23;1.67;;;6.90;54.80;;;;;;20589;6755;311424;-88
2022/01/09 11:55:17;;;;;;;;;;;;;;;;;;;;;
2022/01/09 11:57:57;;;;;;;;;;;;;;;;;;;;;
2022/01/09 12:00:38;;;;;;;1.87;1.17;;;7.40;53.60;;;;;;20635;6747;117496;-90
2022/01/09 12:03:27;;;;;;;3.10;1.53;;;7.20;53.80;;;;;;20439;6762;307227;-90
2022/01/09 12:06:16;;;;;;;2.93;1.80;;;7.20;53.80;;;;;;20588;6804;306503;-90
2022/01/09 12:09:10;;;;;;;;;;;;;;;;;;;;;
2022/01/09 12:12:05;;;;;;;3.70;1.33;;;7.70;53.20;;;;;;20738;6766;117069;-89
2022/01/09 12:14:54;;;;;;;2.33;1.50;;;7.50;53.10;;;;;;20851;6747;122673;-88
2022/01/09 12:17:40;;;;;;;3.40;1.67;;;7.10;53.90;;;;;;20566;6770;337753;-89
2022/01/09 12:20:26;;;;;;;3.67;1.77;;;7.20;54.20;;;;;;20449;6756;333627;-91
2022/01/09 12:23:10;;;;;;;3.50;1.33;;;7.50;53.60;;;;;;20792;6804;116734;-88
2022/01/09 12:25:50;;;;;;;2.75;1.58;;;7.50;53.70;;;;;;20552;6800;299244;-89
2022/01/09 12:28:23;;;;;;;4.97;1.70;;;7.60;53.40;;;;;;20862;6744;117419;-89
2022/01/09 12:30:58;;;;;;;4.70;1.73;;;7.60;53.40;;;;;;20653;6744;117414;-88
2022/01/09 12:33:45;;;;;;;5.67;1.97;;;7.40;53.90;;;;;;20636;6743;340549;-91
2022/01/09 12:36:16;;;;;;;3.53;1.50;;;7.50;53.30;;;;;;20507;6766;308151;-88
2022/01/09 12:38:55;;;;;;;4.67;1.80;;;7.80;52.20;;;;;;20572;6819;308620;-91
2022/01/09 12:41:33;;;;;;;3.20;1.30;;;8.10;51.80;;;;;;20866;6743;117173;-86
2022/01/09 12:44:08;;;;;;;4.40;1.80;;;8.00;52.10;;;;;;20647;6765;117195;-89
2022/01/09 12:46:54;;;;;;;;;;;;;;;;;;;;;
2022/01/09 12:49:19;;;;;;;4.03;1.95;;;7.60;53.30;;;;;;20508;6756;338375;-89
2022/01/09 12:52:00;;;;;;;2.30;1.50;;;7.70;53.00;;;;;;20513;6830;311783;-89
2022/01/09 12:54:30;;;;;;;2.30;1.67;;;8.00;52.30;;;;;;20547;6774;337283;-90
2022/01/09 12:57:17;;;;;;;;;;;;;;;;;;;;;
2022/01/09 12:59:42;;;;;;;3.28;1.52;;;8.10;50.90;;;;;;20211;6762;333772;-89
2022/01/09 13:02:18;;;;;;;3.10;1.53;;;8.10;50.70;;;;;;20642;6831;117154;-90
2022/01/09 13:04:54;;;;;;;3.50;1.30;;;8.00;51.20;;;;;;20793;6762;117410;-90
2022/01/09 13:07:30;;;;;;;2.50;1.40;;;7.80;50.40;;;;;;20596;6762;281876;-91
2022/01/09 13:10:10;;;;;;;2.30;1.37;;;7.80;50.90;;;;;;20506;6755;313390;-89
2022/01/09 13:13:03;;;;;;;3.90;1.30;;;8.10;49.80;;;;;;20829;6770;117453;-89
2022/01/09 13:15:38;;;;;;;2.67;1.50;;;8.10;50.20;;;;;;20665;6755;310813;-89
2022/01/09 13:18:14;;;;;;;3.53;1.50;;;8.30;48.30;;;;;;20603;6755;340680;-88
2022/01/09 13:21:01;;;;;;;2.40;1.43;;;8.30;48.20;;;;;;20535;6785;117494;-88
2022/01/09 13:23:27;;;;;;;3.67;1.40;;;8.20;48.80;;;;;;20602;6756;278052;-91
2022/01/09 13:26:02;;;;;;;2.77;1.50;;;8.20;49.10;;;;;;20595;6754;306326;-92
2022/01/09 13:28:38;;;;;;;2.00;1.30;;;8.40;48.80;;;;;;20650;6741;310590;-90
2022/01/09 13:31:23;;;;;;;2.70;1.40;;;8.60;48.80;;;;;;20374;6833;339357;-89
2022/01/09 13:33:57;;;;;;;3.53;1.17;;;8.80;47.90;;;;;;20853;6756;117330;-89
2022/01/09 13:36:48;;;;;;;1.83;1.20;;;8.50;48.20;;;;;;20637;6786;117751;-86
2022/01/09 13:39:27;;;;;;;2.50;1.20;;;8.10;48.90;;;;;;20717;6768;116907;-90
2022/01/09 13:42:03;;;;;;;1.80;1.20;;;7.70;49.80;;;;;;20564;6758;308081;-89
2022/01/09 13:44:39;;;;;;;4.57;1.37;;;7.70;49.20;;;;;;20829;6753;116447;-88
2022/01/09 13:47:17;;;;;;;1.92;1.10;;;7.70;49.40;;;;;;20557;6828;306813;-86